Hauptseite
METAR-TAF:

METAR-TAF

Flughäfen :

Flughafen Rimini

Rimini, Italien

Breite: 44-02N, Länge: 012-37E, Höhe: 12 m

Beobachtung

Neuester Wetterbericht von vor 24 Minuten, um 23:50 UTC
Wind 3 kt aus Süd
Temperatur 12°C
Luftfeuchtigkeit 94%
Luftdruck 1022 hPa
Sichtweite: 1000 m
Nebelschwaden

METAR: LIPR 202350Z AUTO 19003KT 1000 R31/P1500N BCFG NCD 12/11 Q1022

Zeit: 02:14 (00:14 UTC)

Prognose

Neuester Wetterbericht von vor 1 Stunde und 14 Minuten, um 23:00 UTC
Gültige Prognose vom 21 um 00 UTC bis 21 um 09 UTC
Wind 5 kt aus unterschiedlichen Richtungen
Sichtweite: 3000 m
feuchter Dunst
Übergehend zu
vom 20 um 07 UTC bis 21 um 09 UTC
Sichtweite: 6000 m

TAF: LIPR 202300Z 2100/2109 VRB05KT 3000 BR NSC BECMG 2007/2109 6000

Wetterbeobachtungen und Prognosen von mehr als 4000 Flughäfen (METAR und TAF Bericht).

Die verfügbaren Stationen werden durch gelbe und rote Markierungen auf der Karte dargestellt.

Führen Sie die Maus auf sie, um den Namen der Station zu sehen.

Darauf klicken, um die Beobachtung von Wetterbeobachtungen und Prognosen zu sehen.

Um die Karte zu ändern : klicken Sie auf den grünen Tasten mit einem schwarzen Kreuz Zum Vergrößern, auf den grünen Button mit einem Gedankenstrich zu verkleinern, oder auf die grünen Pfeile für benachbarte Karten.


METAR-TAF: